Home   Weather   Switzerland   Stans   Past weeks
Flag for Switzerland

Past Weather in Stans, Nidwalden, Switzerland — Yesterday and Last 2 Weeks

Currently: 57 °F. Passing clouds. (Weather station: Stans, Switzerland). See more current weather

Past Weather in Stans — Graph

°F

Stans Temperature Yesterday

Maximum temperature yesterday: 77 °F (at 4:20 pm)
Minimum temperature yesterday: 46 °F (at 7:20 am)
Average temperature yesterday: 62 °F

High & Low Weather Summary for the Past Weeks

 TemperatureHumidityPressure
High79 °F (Apr 8, 2:20 pm)100% (Mar 31, 4:50 am)30.54 "Hg (Mar 31, 4:50 am)
Low37 °F (Apr 3, 1:50 am)25% (Apr 8, 10:20 pm)29.27 "Hg (Apr 1, 2:50 am)
Average54 °F70%30.07 "Hg
* Reported Mar 31 3:20 am — Apr 15 3:20 am, Stans. Weather by CustomWeather, © 2024

Note: Actual official high and low records may vary slightly from our data, if they occured in-between our weather recording intervals... More about our weather records

Stans Weather History for the Previous 24 Hours

Scroll right to see more
 ConditionsComfort  
Time TempWeatherWind HumidityBarometerVisibility
3:20 am
Mon, Apr 15
55 °FPassing clouds.3 mph77%30.01 "HgN/A
2:50 am55 °FPartly cloudy.3 mph77%30.01 "HgN/A
2:20 am57 °FClear.2 mph72%30.04 "Hg10 mi
1:50 am55 °FCool.5 mph77%30.04 "HgN/A
1:20 am55 °FPassing clouds.2 mph77%30.07 "HgN/A
12:50 am59 °FClear.2 mph68%30.07 "Hg10 mi
11:50 pm
Sun, Apr 14
57 °FClear.2 mph72%30.07 "Hg10 mi
11:20 pm59 °FClear.5 mph68%30.07 "Hg10 mi
10:50 pm61 °FClear.5 mph63%30.07 "Hg10 mi
10:20 pm64 °FClear.5 mph56%30.09 "Hg10 mi
9:50 pm63 °FClear.3 mph59%30.09 "Hg10 mi
9:20 pm66 °FClear.2 mph52%30.09 "Hg10 mi
8:50 pm68 °FPassing clouds.5 mph49%30.09 "HgN/A
8:20 pm68 °FPassing clouds.6 mph53%30.09 "HgN/A
7:50 pm68 °FPassing clouds.5 mph56%30.09 "HgN/A
7:20 pm72 °FSunny.1 mph50%30.09 "Hg10 mi
6:50 pm73 °FSunny.5 mph53%30.09 "Hg10 mi
6:20 pm75 °FSunny.6 mph47%30.09 "Hg10 mi
5:50 pm75 °FSunny.7 mph50%30.12 "Hg10 mi
5:20 pm75 °FSunny.7 mph47%30.12 "Hg10 mi
4:50 pm77 °FSunny.7 mph51%30.12 "Hg10 mi
4:20 pm77 °FSunny.8 mph47%30.12 "Hg10 mi
3:20 pm75 °FSunny.5 mph54%30.15 "Hg10 mi
2:50 pm73 °FSunny.5 mph47%30.18 "Hg10 mi
2:20 pm73 °FSunny.3 mph47%30.21 "Hg10 mi
1:50 pm72 °FPassing clouds.5 mph44%30.21 "HgN/A
1:20 pm72 °FSunny.3 mph44%30.21 "Hg10 mi
12:50 pm70 °FSunny.3 mph40%30.24 "Hg10 mi
12:20 pm66 °FSunny.6 mph49%30.24 "Hg10 mi
11:50 am66 °FSunny.6 mph49%30.27 "Hg10 mi
11:20 am68 °FSunny.2 mph46%30.27 "Hg10 mi
10:50 am64 °FSunny.2 mph56%30.27 "Hg10 mi
10:20 am64 °FSunny.2 mph52%30.27 "Hg10 mi
9:50 am61 °FSunny.2 mph63%30.27 "Hg10 mi
9:20 am57 °FSunny.1 mph72%30.27 "Hg10 mi
8:50 am54 °FSunny.1 mph72%30.30 "Hg10 mi
8:20 am52 °FSunny.5 mph82%30.27 "Hg10 mi
7:50 am48 °FSunny.3 mph82%30.27 "Hg10 mi
7:20 am46 °FSunny.3 mph87%30.27 "Hg10 mi
6:50 am48 °FSunny.2 mph82%30.27 "Hg10 mi
6:20 am48 °FClear.3 mph82%30.27 "Hg10 mi
5:50 am48 °FClear.5 mph76%30.27 "Hg10 mi
5:20 am48 °FClear.3 mph82%30.27 "Hg10 mi
Weather by CustomWeather, © 2024

See weather overview